This is the latest recevied weather packets stored in our database for station/object VK5KX. If no packets are shown the sender has not sent any weather packets the latest 1 day(s).
| Time | Temp. | Humidity | Pressure | Rain* | Wind** | Luminosity | Snow |
|---|---|---|---|---|---|---|---|
| 1836274701 | 14.44° C | 68% | 1018.6 hPa | 0 mm | 0 m/s | - | - |
| 1778060702 | 15° C | 84% | 1024.3 hPa | 0 mm | 1.34 m/s, 94° | - | - |
| 1778059801 | 15.56° C | 84% | 1024.1 hPa | 0 mm | 2.24 m/s, 126° | - | - |
| 1778058960 | 15.56° C | 84% | 1023.7 hPa | 0 mm | 1.34 m/s, 126° | - | - |
| 1778058060 | 15.56° C | 84% | 1023.5 hPa | 0 mm | 0.89 m/s, 133° | - | - |
| 1778057160 | 16.11° C | 84% | 1023.3 hPa | 0 mm | 0.89 m/s, 144° | - | - |
| 1778057102 | 16.11° C | 84% | 1023.3 hPa | 0 mm | 0.45 m/s, 127° | - | - |
| 1778056260 | 16.67° C | 82% | 1023.1 hPa | 0 mm | 0.89 m/s, 167° | - | - |
| 1778055362 | 16.67° C | 76% | 1022.8 hPa | 0 mm | 0.89 m/s, 133° | - | - |
| 1778054461 | 16.67° C | 73% | 1022.7 hPa | 0 mm | 0.45 m/s, 133° | - | - |
| 1778053590 | 17.22° C | 72% | 1022.6 hPa | 0 mm | 0.45 m/s, 205° | - | - |
| 1778052661 | 17.22° C | 70% | 1022.5 hPa | 0 mm | 0.89 m/s, 129° | - | - |
| 1778051757 | 17.78° C | 71% | 1022.4 hPa | 0 mm | 0.89 m/s, 125° | - | - |
| 1778050876 | 17.78° C | 71% | 1022.3 hPa | 0 mm | 1.34 m/s, 154° | - | - |
| 1778049969 | 17.78° C | 71% | 1022.2 hPa | 0 mm | 1.79 m/s, 142° | - | - |
| 1778049056 | 18.33° C | 71% | 1022.1 hPa | 0 mm | 0.89 m/s, 123° | - | - |
| 1778048157 | 18.33° C | 72% | 1022.1 hPa | 0 mm | 1.79 m/s, 136° | - | - |
| 1778047258 | 17.78° C | 76% | 1022 hPa | 0 mm | 1.34 m/s, 126° | - | - |
| 1778046354 | 17.22° C | 80% | 1022 hPa | 0 mm | 0.89 m/s, 128° | - | - |
| 1778045459 | 16.67° C | 84% | 1022 hPa | 0 mm | 0.45 m/s, 142° | - | - |
| 1778044556 | 16.67° C | 84% | 1022.1 hPa | 0 mm | 1.79 m/s, 124° | - | - |
| 1778043651 | 17.22° C | 81% | 1022 hPa | 0.25 mm | 2.24 m/s, 198° | - | - |
| 1778042758 | 17.22° C | 82% | 1021.9 hPa | 0.25 mm | 1.79 m/s, 121° | - | - |
| 1778041850 | 17.22° C | 82% | 1021.9 hPa | 0.25 mm | 1.34 m/s, 160° | - | - |
| 1778040954 | 17.22° C | 84% | 1021.9 hPa | 0.25 mm | 1.34 m/s, 135° | - | - |
* Rain latest hour (hover to see other rain measurements)
** Current wind speed in m/s (hover to see current wind gust speed)